Augusta, West Virginia
Current Conditions -  °F | °C
As of 2:16 AM on Saturday 29 Nov 2014 (Local Time) from KCBE Reporting Station
Clear Clear  
Wind Chill: 30°   Ceiling: Unl
Heat Index: 30°   Visibility: 10mi
Dew Point: 23°   Wind: 0mph
Humidity: 75%   Direction: NA
Pressure: 30.28"   Gusts: NA
Location:  39.3°N, 78.64°W
Report Text: KCBE 290716Z AUTO 00000KT 10SM CLR M01/M05 A3028 RMK AO1
Loading
Personal Weather Stations






























Interactive Weather Map New forecast layout! Learn more

10-Day Weather Forecast

Advertisements
Track Severe Weather on mobile